createdAt,value
2022-08-07T00:01:44.288Z,8.90
2022-08-07T00:04:09.518Z,10.10
2022-08-07T00:06:40.930Z,10.10
2022-08-07T00:09:29.217Z,10.00
2022-08-07T00:12:03.861Z,10.10
2022-08-07T00:14:32.402Z,10.40
2022-08-07T00:17:01.862Z,10.20
2022-08-07T00:20:00.360Z,10.00
2022-08-07T00:22:24.527Z,9.80
2022-08-07T00:25:07.030Z,9.80
2022-08-07T00:27:53.274Z,10.10
2022-08-07T00:30:26.986Z,10.60
2022-08-07T00:33:02.061Z,10.10
2022-08-07T00:35:30.635Z,9.80
2022-08-07T00:37:59.220Z,10.20
2022-08-07T00:40:39.358Z,9.40
2022-08-07T00:43:59.373Z,9.80
2022-08-07T00:46:01.889Z,9.60
2022-08-07T00:48:32.249Z,10.10
2022-08-07T00:51:02.260Z,9.60
2022-08-07T00:53:38.836Z,11.10
2022-08-07T00:56:18.295Z,11.10
2022-08-07T00:58:47.417Z,10.00
2022-08-07T01:01:19.923Z,9.80
2022-08-07T01:03:56.150Z,9.60
2022-08-07T01:06:28.837Z,9.80
2022-08-07T01:08:58.569Z,10.80
2022-08-07T01:12:27.438Z,10.50
2022-08-07T01:14:28.879Z,10.90
2022-08-07T01:16:58.757Z,10.40
2022-08-07T01:19:32.414Z,10.50
2022-08-07T01:22:01.072Z,9.90
2022-08-07T01:24:38.332Z,10.20
2022-08-07T01:27:06.910Z,10.50
2022-08-07T01:29:48.501Z,10.30
2022-08-07T01:32:19.851Z,10.70
2022-08-07T01:34:51.580Z,10.80
2022-08-07T01:37:19.268Z,9.90
2022-08-07T01:39:49.837Z,10.10
2022-08-07T01:42:38.433Z,10.70
2022-08-07T01:45:22.704Z,10.60
2022-08-07T01:48:21.583Z,11.00
2022-08-07T01:50:42.968Z,11.50
2022-08-07T01:53:21.125Z,10.80
2022-08-07T01:56:06.173Z,10.40
2022-08-07T01:59:09.385Z,10.50
2022-08-07T02:02:01.893Z,10.50
2022-08-07T02:04:52.567Z,11.00
2022-08-07T02:07:50.134Z,11.10
2022-08-07T02:10:25.263Z,11.30
2022-08-07T02:12:57.371Z,10.30
2022-08-07T02:15:33.975Z,10.80
2022-08-07T02:18:02.866Z,10.40
2022-08-07T02:20:32.843Z,10.80
2022-08-07T02:23:05.356Z,10.40
2022-08-07T02:26:30.414Z,11.50
2022-08-07T02:28:27.024Z,10.80
2022-08-07T02:30:58.782Z,9.70
2022-08-07T02:33:41.956Z,11.30
2022-08-07T02:36:29.162Z,11.30
2022-08-07T02:39:09.441Z,10.30
2022-08-07T02:41:50.570Z,11.20
2022-08-07T02:44:24.115Z,11.50
2022-08-07T02:46:57.094Z,11.50
2022-08-07T02:49:28.603Z,11.20
2022-08-07T02:51:59.275Z,11.00
2022-08-07T02:54:29.034Z,11.00
2022-08-07T02:57:01.355Z,11.40
2022-08-07T02:59:31.898Z,11.10
2022-08-07T03:02:02.581Z,11.40
2022-08-07T03:04:30.859Z,11.60
2022-08-07T03:07:07.153Z,11.40
2022-08-07T03:09:43.559Z,11.60
2022-08-07T03:12:22.707Z,10.70
2022-08-07T03:15:02.381Z,10.00
2022-08-07T03:17:53.335Z,10.40
2022-08-07T03:20:24.025Z,11.80
2022-08-07T03:22:53.674Z,11.50
2022-08-07T03:25:23.411Z,11.20
2022-08-07T03:27:59.098Z,10.70
2022-08-07T03:30:37.430Z,10.50
2022-08-07T03:33:08.645Z,11.20
2022-08-07T03:35:44.151Z,10.90
2022-08-07T03:38:21.243Z,11.00
2022-08-07T03:40:53.951Z,11.50
2022-08-07T03:43:26.801Z,11.10
2022-08-07T03:46:02.981Z,11.40
2022-08-07T03:48:33.570Z,11.30
2022-08-07T03:51:13.984Z,10.80
2022-08-07T03:54:05.713Z,11.40
2022-08-07T03:56:33.307Z,11.00
2022-08-07T03:59:09.813Z,11.80
2022-08-07T04:01:45.546Z,11.00
2022-08-07T04:04:17.615Z,10.80
2022-08-07T04:06:46.563Z,11.10
2022-08-07T04:09:23.432Z,11.80
2022-08-07T04:12:23.412Z,10.80
2022-08-07T04:14:47.822Z,11.40
2022-08-07T04:17:20.761Z,10.90
2022-08-07T04:19:55.233Z,11.10
2022-08-07T04:22:30.013Z,11.30
2022-08-07T04:25:01.813Z,11.20
2022-08-07T04:27:35.460Z,11.50
2022-08-07T04:30:35.641Z,11.60
2022-08-07T04:33:07.445Z,11.10
2022-08-07T04:35:37.537Z,11.10
2022-08-07T04:38:09.231Z,11.40
2022-08-07T04:40:52.732Z,11.00
2022-08-07T04:44:11.964Z,12.00
2022-08-07T04:46:59.581Z,11.10
2022-08-07T04:50:04.146Z,11.00
2022-08-07T04:52:53.578Z,10.40
2022-08-07T04:58:38.757Z,11.80
2022-08-07T05:02:08.690Z,10.80
2022-08-07T05:05:11.894Z,10.60
2022-08-07T05:08:08.423Z,10.50
2022-08-07T05:10:51.174Z,10.40
2022-08-07T05:14:55.213Z,10.20
2022-08-07T05:16:25.772Z,9.60
2022-08-07T05:18:56.583Z,10.60
2022-08-07T05:22:00.247Z,10.70
2022-08-07T05:24:17.508Z,10.40
2022-08-07T05:26:47.237Z,10.90
2022-08-07T05:29:17.230Z,10.60
2022-08-07T05:31:51.207Z,10.20
2022-08-07T05:34:26.302Z,10.10
2022-08-07T05:36:55.554Z,10.20
2022-08-07T05:40:05.457Z,9.90
2022-08-07T05:42:34.269Z,10.10
2022-08-07T05:45:26.327Z,10.60
2022-08-07T05:48:16.579Z,10.70
2022-08-07T05:50:46.041Z,10.10
2022-08-07T05:54:14.151Z,9.40
2022-08-07T05:56:06.234Z,10.20
2022-08-07T05:58:52.316Z,11.20
2022-08-07T06:01:27.458Z,11.10
2022-08-07T06:04:10.468Z,11.50
2022-08-07T06:06:46.416Z,10.70
2022-08-07T06:09:16.767Z,10.40
2022-08-07T06:11:46.534Z,10.90
2022-08-07T06:14:20.999Z,11.70
2022-08-07T06:16:55.818Z,10.40
2022-08-07T06:19:52.005Z,11.80
2022-08-07T06:22:50.555Z,11.60
2022-08-07T06:25:34.843Z,11.50
2022-08-07T06:28:14.212Z,10.90
2022-08-07T06:30:45.868Z,11.60
2022-08-07T06:33:17.889Z,12.50
2022-08-07T06:36:06.101Z,12.50
2022-08-07T06:38:35.162Z,11.70
2022-08-07T06:41:13.022Z,11.30
2022-08-07T06:43:46.447Z,11.10
2022-08-07T06:46:35.124Z,11.00
2022-08-07T06:49:05.162Z,12.40
2022-08-07T06:51:49.605Z,12.30
2022-08-07T06:55:32.586Z,13.20
2022-08-07T06:57:09.239Z,11.40
2022-08-07T07:00:13.789Z,11.50
2022-08-07T07:02:53.496Z,11.70
2022-08-07T07:06:03.615Z,15.40
2022-08-07T07:08:12.453Z,12.70
2022-08-07T07:10:54.951Z,12.30
2022-08-07T07:13:55.872Z,13.50
2022-08-07T07:16:30.277Z,12.50
2022-08-07T07:19:23.606Z,13.10
2022-08-07T07:22:04.825Z,12.40
2022-08-07T07:24:43.004Z,12.50
2022-08-07T07:27:35.571Z,12.40
2022-08-07T07:30:32.483Z,12.20
2022-08-07T07:33:01.373Z,13.10
2022-08-07T07:35:33.477Z,12.90
2022-08-07T07:38:05.758Z,12.30
2022-08-07T07:40:34.138Z,12.20
2022-08-07T07:43:15.306Z,11.80
2022-08-07T07:46:36.868Z,12.90
2022-08-07T07:48:36.481Z,12.40
2022-08-07T07:51:07.708Z,11.30
2022-08-07T07:56:30.531Z,11.60
2022-08-07T07:59:04.377Z,10.70
2022-08-07T08:02:02.944Z,11.60
2022-08-07T08:04:25.718Z,10.80
2022-08-07T08:06:54.929Z,10.30
2022-08-07T08:09:25.948Z,9.60
2022-08-07T08:12:02.622Z,9.90
2022-08-07T08:14:34.247Z,9.60
2022-08-07T08:17:56.094Z,9.20
2022-08-07T08:20:17.446Z,8.90
2022-08-07T08:23:09.280Z,8.20
2022-08-07T08:25:58.481Z,8.90
2022-08-07T08:28:37.398Z,8.20
2022-08-07T08:32:16.729Z,7.50
2022-08-07T08:34:32.870Z,8.20
2022-08-07T08:37:02.967Z,7.60
2022-08-07T08:39:39.832Z,8.10
2022-08-07T08:42:52.863Z,8.40
2022-08-07T08:45:59.219Z,8.70
2022-08-07T08:48:42.472Z,8.40
2022-08-07T08:52:00.892Z,8.00
2022-08-07T08:54:50.812Z,7.10
2022-08-07T08:57:38.052Z,6.50
2022-08-07T09:00:12.264Z,6.50
2022-08-07T09:02:40.310Z,8.60
2022-08-07T09:05:37.810Z,8.40
2022-08-07T09:08:28.454Z,7.60
2022-08-07T09:11:24.296Z,7.80
2022-08-07T09:14:20.329Z,9.10
2022-08-07T09:16:57.631Z,8.70
2022-08-07T09:20:35.968Z,8.80
2022-08-07T09:24:54.123Z,8.70
2022-08-07T09:26:27.776Z,8.90
2022-08-07T09:30:06.615Z,9.90
2022-08-07T09:33:05.710Z,7.50
2022-08-07T09:36:35.067Z,9.40
2022-08-07T09:39:54.218Z,7.10
2022-08-07T09:42:11.902Z,7.50
2022-08-07T09:47:24.017Z,8.20
2022-08-07T09:48:29.709Z,9.40
2022-08-07T09:51:25.926Z,10.00
2022-08-07T09:54:02.631Z,8.90
2022-08-07T09:56:51.724Z,9.30
2022-08-07T09:59:44.355Z,9.40
2022-08-07T10:02:55.387Z,8.90
2022-08-07T10:06:12.264Z,8.60
2022-08-07T10:09:15.171Z,8.10
2022-08-07T10:12:53.115Z,8.30
2022-08-07T10:16:09.755Z,7.90
2022-08-07T10:19:24.674Z,8.10
2022-08-07T10:22:24.868Z,8.70
2022-08-07T10:25:22.661Z,6.10
2022-08-07T10:28:17.386Z,5.90
2022-08-07T10:31:31.464Z,6.20
2022-08-07T10:34:37.712Z,5.70
2022-08-07T10:38:21.211Z,5.00
2022-08-07T10:41:04.182Z,6.60
2022-08-07T10:43:43.031Z,5.90
2022-08-07T10:46:20.011Z,5.00
2022-08-07T10:49:49.095Z,5.40
2022-08-07T10:52:55.303Z,5.10
2022-08-07T10:55:37.971Z,5.30
2022-08-07T10:58:48.181Z,4.80
2022-08-07T11:02:12.447Z,4.50
2022-08-07T11:05:50.780Z,5.10
2022-08-07T11:08:32.431Z,4.80
2022-08-07T11:11:25.464Z,6.50
2022-08-07T11:14:44.915Z,4.30
2022-08-07T11:17:42.597Z,4.40
2022-08-07T11:20:19.910Z,4.20
2022-08-07T11:23:36.598Z,4.20
2022-08-07T11:26:48.096Z,4.80
2022-08-07T11:30:10.051Z,4.00
2022-08-07T11:33:01.269Z,4.20
2022-08-07T11:36:10.444Z,4.30
2022-08-07T11:38:59.814Z,3.90
2022-08-07T11:42:00.433Z,4.20
2022-08-07T11:45:35.561Z,4.20
2022-08-07T11:48:29.129Z,4.40
2022-08-07T11:51:41.340Z,4.20
2022-08-07T11:54:46.485Z,4.40
2022-08-07T11:57:57.877Z,4.30
2022-08-07T12:01:02.238Z,3.70
2022-08-07T12:03:49.641Z,4.30
2022-08-07T12:06:39.027Z,4.30
2022-08-07T12:09:09.639Z,4.10
2022-08-07T12:12:09.179Z,4.90
2022-08-07T12:15:01.200Z,4.30
2022-08-07T12:17:39.228Z,4.60
2022-08-07T12:20:36.525Z,4.50
2022-08-07T12:23:21.396Z,4.60
2022-08-07T12:26:41.986Z,5.10
2022-08-07T12:30:04.626Z,4.90
2022-08-07T12:32:58.586Z,5.10
2022-08-07T12:35:26.979Z,5.50
2022-08-07T12:38:11.339Z,5.00
2022-08-07T12:40:50.397Z,5.60
2022-08-07T12:44:01.381Z,5.40
2022-08-07T12:46:41.284Z,5.20
2022-08-07T12:49:51.567Z,4.90
2022-08-07T12:52:41.728Z,4.90
2022-08-07T12:56:02.762Z,5.00
2022-08-07T12:58:37.053Z,4.40
2022-08-07T13:01:32.057Z,4.30
2022-08-07T13:04:31.707Z,4.00
2022-08-07T13:08:13.945Z,3.90
2022-08-07T13:11:01.825Z,4.00
2022-08-07T13:13:55.152Z,3.60
2022-08-07T13:16:41.271Z,3.80
2022-08-07T13:19:50.886Z,3.40
2022-08-07T13:22:53.367Z,3.40
2022-08-07T13:25:30.641Z,4.00
2022-08-07T13:28:14.294Z,4.20
2022-08-07T13:31:13.333Z,4.20
2022-08-07T13:34:33.414Z,4.30
2022-08-07T13:36:44.880Z,3.60
2022-08-07T13:40:36.276Z,3.80
2022-08-07T13:42:53.190Z,3.70
2022-08-07T13:48:27.454Z,3.40
2022-08-07T13:51:00.221Z,3.00
2022-08-07T13:56:36.274Z,3.70
2022-08-07T13:59:21.943Z,3.30
2022-08-07T14:02:08.072Z,3.40
2022-08-07T14:04:54.437Z,3.20
2022-08-07T14:08:01.360Z,3.40
2022-08-07T14:10:44.827Z,3.80
2022-08-07T14:13:33.189Z,3.40
2022-08-07T14:16:06.379Z,2.80
2022-08-07T14:18:56.748Z,3.20
2022-08-07T14:22:03.093Z,3.50
2022-08-07T14:24:35.459Z,4.00
2022-08-07T14:27:16.169Z,3.60
2022-08-07T14:30:08.091Z,4.50
2022-08-07T14:32:50.501Z,4.20
2022-08-07T14:35:45.349Z,3.50
2022-08-07T14:38:26.839Z,3.60
2022-08-07T14:43:55.512Z,3.20
2022-08-07T14:46:32.004Z,3.40
2022-08-07T14:49:56.086Z,3.40
2022-08-07T14:52:05.032Z,3.40
2022-08-07T14:54:42.154Z,3.30
2022-08-07T14:57:19.665Z,3.50
2022-08-07T15:00:03.172Z,3.60
2022-08-07T15:02:39.405Z,3.60
2022-08-07T15:05:20.084Z,3.70
2022-08-07T15:08:05.063Z,3.70
2022-08-07T15:10:36.645Z,3.10
2022-08-07T15:13:18.313Z,3.60
2022-08-07T15:15:52.198Z,3.10
2022-08-07T15:18:46.362Z,2.70
2022-08-07T15:25:13.285Z,2.20
2022-08-07T15:27:16.831Z,2.30
2022-08-07T15:30:08.844Z,2.30
2022-08-07T15:32:50.672Z,2.40
2022-08-07T15:36:00.841Z,2.20
2022-08-07T15:41:24.422Z,2.40
2022-08-07T15:44:14.714Z,2.10
2022-08-07T15:50:04.282Z,2.20
2022-08-07T15:52:30.782Z,3.20
2022-08-07T15:55:03.865Z,2.20
2022-08-07T15:57:39.946Z,1.90
2022-08-07T16:00:31.078Z,2.40
2022-08-07T16:03:46.111Z,2.10
2022-08-07T16:06:16.650Z,2.20
2022-08-07T16:08:46.433Z,1.90
2022-08-07T16:11:42.933Z,2.10
2022-08-07T16:14:53.686Z,2.10
2022-08-07T16:18:01.926Z,2.00
2022-08-07T16:22:01.593Z,1.80
2022-08-07T16:24:34.420Z,1.60
2022-08-07T16:27:18.642Z,1.90
2022-08-07T16:30:11.085Z,1.80
2022-08-07T16:34:02.073Z,1.60
2022-08-07T16:36:19.898Z,1.60
2022-08-07T16:39:49.379Z,1.60
2022-08-07T16:42:47.873Z,1.60
2022-08-07T16:46:21.331Z,1.50
2022-08-07T16:50:27.053Z,1.70
2022-08-07T16:52:50.771Z,1.40
2022-08-07T16:55:50.324Z,1.90
2022-08-07T16:59:10.804Z,1.60
2022-08-07T17:02:08.999Z,1.70
2022-08-07T17:06:19.514Z,1.70
2022-08-07T17:09:09.807Z,1.80
2022-08-07T17:12:05.170Z,1.80
2022-08-07T17:14:48.724Z,1.80
2022-08-07T17:17:46.411Z,1.80
2022-08-07T17:20:21.438Z,2.00
2022-08-07T17:23:40.179Z,2.10
2022-08-07T17:26:23.419Z,2.00
2022-08-07T17:29:09.102Z,1.70
2022-08-07T17:32:03.211Z,1.90
2022-08-07T17:35:40.706Z,2.30
2022-08-07T17:38:09.428Z,2.00
2022-08-07T17:40:43.997Z,3.00
2022-08-07T17:44:00.956Z,2.10
2022-08-07T17:46:43.150Z,2.10
2022-08-07T17:49:44.514Z,2.50
2022-08-07T17:52:35.298Z,2.20
2022-08-07T17:55:16.634Z,2.10
2022-08-07T17:58:08.426Z,2.20
2022-08-07T18:00:48.782Z,2.30
2022-08-07T18:09:08.540Z,2.00
2022-08-07T18:12:16.539Z,2.60
2022-08-07T18:15:00.341Z,2.50
2022-08-07T18:18:46.178Z,2.70
2022-08-07T18:21:02.972Z,2.40
2022-08-07T18:23:58.500Z,2.70
2022-08-07T18:26:56.513Z,2.60
2022-08-07T18:30:04.302Z,2.50
2022-08-07T18:33:30.432Z,2.20
2022-08-07T18:36:53.681Z,2.30
2022-08-07T18:40:06.407Z,2.70
2022-08-07T18:42:54.407Z,2.50
2022-08-07T18:46:25.016Z,2.50
2022-08-07T18:50:31.321Z,2.50
2022-08-07T18:52:34.592Z,2.80
2022-08-07T18:54:49.718Z,2.80
2022-08-07T18:57:43.801Z,2.70
2022-08-07T19:01:02.029Z,2.40
2022-08-07T19:03:52.363Z,2.70
2022-08-07T19:06:48.897Z,2.80
2022-08-07T19:09:59.027Z,2.90
2022-08-07T19:12:53.642Z,2.90
2022-08-07T19:16:05.131Z,3.20
2022-08-07T19:19:13.174Z,3.70
2022-08-07T19:22:31.150Z,3.20
2022-08-07T19:25:06.923Z,3.60
2022-08-07T19:28:30.249Z,3.30
2022-08-07T19:31:03.461Z,3.50
2022-08-07T19:33:34.859Z,3.40
2022-08-07T19:36:04.511Z,3.40
2022-08-07T19:38:35.201Z,3.80
2022-08-07T19:41:44.305Z,3.80
2022-08-07T19:44:21.578Z,3.60
2022-08-07T19:46:55.868Z,3.60
2022-08-07T19:49:57.073Z,3.60
2022-08-07T19:52:18.762Z,3.50
2022-08-07T19:54:56.323Z,3.70
2022-08-07T19:58:02.556Z,4.20
2022-08-07T20:00:34.494Z,4.60
2022-08-07T20:03:34.603Z,3.50
2022-08-07T20:06:02.683Z,3.50
2022-08-07T20:08:34.103Z,4.80
2022-08-07T20:11:10.054Z,3.10
2022-08-07T20:13:50.647Z,3.20
2022-08-07T20:16:35.568Z,2.60
2022-08-07T20:19:10.378Z,2.70
2022-08-07T20:21:47.411Z,2.70
2022-08-07T20:24:24.045Z,2.70
2022-08-07T20:27:04.344Z,2.50
2022-08-07T20:29:49.433Z,2.40
2022-08-07T20:32:39.994Z,2.30
2022-08-07T20:35:26.264Z,2.70
2022-08-07T20:37:59.708Z,2.30
2022-08-07T20:40:40.587Z,3.10
2022-08-07T20:43:19.217Z,3.10
2022-08-07T20:46:26.008Z,3.00
2022-08-07T20:48:57.951Z,4.70
2022-08-07T20:51:30.496Z,2.20
2022-08-07T20:54:11.754Z,2.70
2022-08-07T20:56:41.886Z,2.80
2022-08-07T21:00:04.219Z,2.80
2022-08-07T21:02:32.826Z,2.90
2022-08-07T21:05:04.464Z,2.80
2022-08-07T21:07:39.067Z,2.80
2022-08-07T21:10:11.615Z,2.80
2022-08-07T21:15:10.211Z,2.40
2022-08-07T21:18:04.020Z,2.50
2022-08-07T21:20:39.236Z,3.20
2022-08-07T21:23:29.252Z,2.70
2022-08-07T21:26:08.788Z,3.20
2022-08-07T21:28:58.265Z,2.70
2022-08-07T21:31:49.933Z,2.70
2022-08-07T21:34:46.328Z,2.90
2022-08-07T21:37:58.465Z,3.10
2022-08-07T21:40:47.478Z,3.00
2022-08-07T21:44:03.644Z,3.10
2022-08-07T21:46:37.228Z,2.80
2022-08-07T21:49:26.827Z,3.00
2022-08-07T21:52:17.680Z,3.10
2022-08-07T21:55:29.916Z,2.70
2022-08-07T21:58:29.934Z,2.70
2022-08-07T22:01:13.988Z,3.40
2022-08-07T22:03:47.626Z,3.20
2022-08-07T22:06:30.424Z,3.20
2022-08-07T22:09:12.019Z,3.10
2022-08-07T22:12:05.050Z,3.10
2022-08-07T22:15:00.079Z,3.30
2022-08-07T22:17:59.151Z,3.00
2022-08-07T22:20:44.543Z,3.30
2022-08-07T22:23:46.467Z,2.80
2022-08-07T22:26:30.769Z,2.80
2022-08-07T22:29:50.177Z,3.00
2022-08-07T22:32:43.955Z,3.20
2022-08-07T22:35:11.707Z,3.00
2022-08-07T22:38:25.862Z,3.00
2022-08-07T22:42:18.786Z,2.90
2022-08-07T22:44:21.428Z,3.50
2022-08-07T22:47:04.188Z,3.20
2022-08-07T22:50:03.876Z,3.00
2022-08-07T22:53:17.344Z,3.80
2022-08-07T22:56:00.689Z,3.20
2022-08-07T22:59:16.766Z,3.40
2022-08-07T23:02:17.677Z,3.50
2022-08-07T23:06:07.730Z,3.40
2022-08-07T23:08:30.324Z,4.00
2022-08-07T23:11:22.282Z,4.20
2022-08-07T23:14:15.958Z,4.10
2022-08-07T23:17:08.616Z,4.20
2022-08-07T23:20:40.803Z,4.70
2022-08-07T23:24:06.858Z,4.10
2022-08-07T23:27:12.968Z,3.80
2022-08-07T23:30:37.207Z,3.90
2022-08-07T23:34:34.331Z,4.00
2022-08-07T23:37:23.465Z,3.90
2022-08-07T23:40:39.670Z,4.10
2022-08-07T23:43:37.861Z,3.90
2022-08-07T23:46:43.855Z,4.40
2022-08-07T23:49:58.135Z,4.30
2022-08-07T23:53:01.266Z,4.50
2022-08-07T23:56:11.974Z,3.90
